Time;durP1;ratioP1;P1;durP2;ratioP2;P2;SDS_P1;SDS_P2;PMS_P1;PMS_P2;Temp;Humidity;BMP_temperature;BMP_pressure;BME280_temperature;BME280_humidity;BME280_pressure;Samples;Min_cycle;Max_cycle;Signal;HPM_P1;HPM_P2
2023/08/19 00:02:43;;;;;;;10.98;9.88;;;;;;;20.66;100.00;98669.03;15280227;19;20352;-74
2023/08/19 00:08:08;;;;;;;12.30;10.57;;;;;;;20.68;100.00;98661.44;15288266;19;20011;-76
2023/08/19 00:13:32;;;;;;;11.43;8.82;;;;;;;20.66;100.00;98631.56;15281865;19;20078;-75
2023/08/19 00:19:00;;;;;;;9.07;8.18;;;;;;;20.68;100.00;98617.66;15286011;19;20014;-75
2023/08/19 00:24:24;;;;;;;8.93;8.02;;;;;;;20.70;100.00;98599.09;15275504;19;20480;-76
2023/08/19 00:29:49;;;;;;;7.97;7.15;;;;;;;20.72;100.00;98603.28;15300028;19;20006;-75
2023/08/19 00:35:16;;;;;;;9.77;8.27;;;;;;;20.71;100.00;98611.72;15290440;19;20081;-76
2023/08/19 00:40:41;;;;;;;10.38;9.13;;;;;;;20.67;100.00;98596.81;15299697;19;20025;-77
2023/08/19 00:46:06;;;;;;;10.90;9.70;;;;;;;20.63;100.00;98605.47;15300391;19;20086;-74
2023/08/19 00:51:40;;;;;;;10.32;9.00;;;;;;;20.62;100.00;98600.22;15292493;19;20078;-76
2023/08/19 00:57:06;;;;;;;10.10;9.10;;;;;;;20.61;100.00;98604.88;15294895;19;20039;-74
2023/08/19 01:02:30;;;;;;;9.73;8.70;;;;;;;20.59;100.00;98606.97;15295067;19;20021;-76
2023/08/19 01:08:02;;;;;;;12.48;11.18;;;;;;;20.55;100.00;98635.00;15295767;19;20027;-76
2023/08/19 01:13:31;;;;;;;12.05;10.85;;;;;;;20.48;100.00;98646.00;15289306;19;20021;-74
2023/08/19 01:18:59;;;;;;;16.63;12.23;;;;;;;20.45;100.00;98660.97;15298980;19;20365;-74
2023/08/19 01:24:29;;;;;;;12.30;11.00;;;;;;;20.42;100.00;98674.22;15291691;19;20011;-76
2023/08/19 01:29:57;;;;;;;11.02;9.45;;;;;;;20.41;100.00;98681.63;15295647;19;20017;-76
2023/08/19 01:35:23;;;;;;;11.27;8.55;;;;;;;20.37;100.00;98653.00;15294263;19;20492;-76
2023/08/19 01:40:48;;;;;;;9.70;8.70;;;;;;;20.35;100.00;98635.97;15290691;19;20081;-76
2023/08/19 01:46:15;;;;;;;9.25;8.35;;;;;;;20.33;100.00;98630.72;15290780;19;20073;-76
2023/08/19 01:51:47;;;;;;;9.35;7.97;;;;;;;20.31;100.00;98619.16;15285871;19;20537;-75
2023/08/19 01:57:12;;;;;;;10.63;7.97;;;;;;;20.28;100.00;98611.41;15287995;19;20403;-75
2023/08/19 02:02:40;;;;;;;10.23;8.38;;;;;;;20.26;100.00;98626.34;15289941;19;20014;-76
2023/08/19 02:08:06;;;;;;;14.70;9.75;;;;;;;20.23;100.00;98635.84;15296344;19;20596;-74
2023/08/19 02:13:30;;;;;;;11.75;9.93;;;;;;;20.16;100.00;98660.50;15281919;19;20086;-75
2023/08/19 02:18:59;;;;;;;13.23;10.10;;;;;;;20.13;100.00;98673.75;15288228;19;20030;-76
2023/08/19 02:24:25;;;;;;;10.80;8.65;;;;;;;20.08;100.00;98690.84;15283993;19;20025;-75
2023/08/19 02:29:50;;;;;;;12.38;8.48;;;;;;;20.08;100.00;98695.44;15285452;19;20011;-76
2023/08/19 02:35:19;;;;;;;10.73;7.55;;;;;;;20.05;100.00;98680.31;15287589;19;20022;-75
2023/08/19 02:40:49;;;;;;;10.25;7.13;;;;;;;20.04;100.00;98669.59;15287587;19;20458;-76
2023/08/19 02:46:14;;;;;;;7.25;6.53;;;;;;;20.01;100.00;98658.03;15289393;19;20017;-78
2023/08/19 02:51:41;;;;;;;7.72;6.93;;;;;;;19.97;100.00;98651.31;15290489;19;20010;-79
2023/08/19 02:57:06;;;;;;;8.80;7.35;;;;;;;19.92;100.00;98642.09;15295591;19;20006;-79
2023/08/19 03:02:31;;;;;;;9.18;7.30;;;;;;;19.84;100.00;98648.59;15286225;19;20022;-79
2023/08/19 03:07:59;;;;;;;7.97;7.18;;;;;;;19.78;100.00;98641.28;15289259;19;20014;-79
2023/08/19 03:13:23;;;;;;;8.82;7.22;;;;;;;19.71;100.00;98638.56;15291974;19;20011;-79
2023/08/19 03:18:49;;;;;;;7.72;6.93;;;;;;;19.62;100.00;98643.41;15291075;19;20014;-82
2023/08/19 03:24:16;;;;;;;8.70;7.78;;;;;;;19.57;100.00;98640.50;15288658;19;20018;-79
2023/08/19 03:29:42;;;;;;;9.27;7.90;;;;;;;19.51;100.00;98653.13;15315922;19;20402;-79
2023/08/19 03:35:08;;;;;;;9.93;8.10;;;;;;;19.48;100.00;98652.69;15306027;19;20019;-79
2023/08/19 03:40:36;;;;;;;9.40;8.43;;;;;;;19.45;100.00;98672.28;15277211;19;20014;-79
2023/08/19 03:46:00;;;;;;;10.85;8.52;;;;;;;19.41;100.00;98674.56;15295390;19;20011;-80
2023/08/19 03:51:32;;;;;;;9.50;8.48;;;;;;;19.38;100.00;98691.41;15296331;19;20028;-80
2023/08/19 03:56:59;;;;;;;9.52;8.52;;;;;;;19.38;100.00;98700.44;15343608;19;20010;-75
2023/08/19 04:02:26;;;;;;;9.45;8.48;;;;;;;19.38;100.00;98714.09;15293773;19;20010;-74
2023/08/19 04:07:50;;;;;;;9.55;8.30;;;;;;;19.40;100.00;98712.00;15296096;19;20006;-76
2023/08/19 04:13:19;;;;;;;11.00;7.30;;;;;;;19.42;100.00;98719.13;15294322;19;20002;-76
2023/08/19 04:18:43;;;;;;;8.75;7.05;;;;;;;19.46;100.00;98725.88;15300500;19;20019;-73
2023/08/19 04:24:08;;;;;;;9.35;7.57;;;;;;;19.48;100.00;98723.75;15295402;19;20007;-76
2023/08/19 04:29:35;;;;;;;9.35;7.00;;;;;;;19.48;100.00;98724.59;15298765;19;20014;-73
2023/08/19 04:35:01;;;;;;;8.88;7.55;;;;;;;19.49;100.00;98747.28;15295874;19;20014;-75
2023/08/19 04:40:27;;;;;;;10.13;7.95;;;;;;;19.49;100.00;98730.88;15294347;19;20026;-76
2023/08/19 04:45:56;;;;;;;10.48;8.23;;;;;;;19.48;100.00;98751.91;15296800;19;20017;-75
2023/08/19 04:51:22;;;;;;;12.73;9.38;;;;;;;19.46;100.00;98775.06;15290556;19;20562;-76
2023/08/19 04:56:47;;;;;;;10.85;9.00;;;;;;;19.40;100.00;98779.47;15311012;19;20014;-75
2023/08/19 05:02:14;;;;;;;10.77;9.50;;;;;;;19.38;100.00;98784.28;15313907;19;20019;-76
2023/08/19 05:07:41;;;;;;;10.35;7.78;;;;;;;19.32;100.00;98776.91;15304441;19;20014;-77
2023/08/19 05:13:06;;;;;;;9.38;8.32;;;;;;;19.31;100.00;98781.56;15288163;19;20014;-75
2023/08/19 05:18:34;;;;;;;8.82;7.45;;;;;;;19.33;100.00;98798.59;15302831;19;20651;-77
2023/08/19 05:23:58;;;;;;;8.73;7.05;;;;;;;19.37;100.00;98809.94;15289483;19;20017;-75
2023/08/19 05:29:23;;;;;;;8.85;6.40;;;;;;;19.40;100.00;98812.25;15296144;19;20027;-76
2023/08/19 05:34:51;;;;;;;7.85;5.63;;;;;;;19.48;100.00;98794.78;15292893;19;20022;-76
2023/08/19 05:40:21;;;;;;;6.15;5.22;;;;;;;19.55;100.00;98790.19;15292716;19;20234;-76
2023/08/19 05:45:46;;;;;;;5.93;5.00;;;;;;;19.65;100.00;98789.72;15287492;19;20011;-75
2023/08/19 05:51:23;;;;;;;7.25;5.45;;;;;;;19.73;100.00;98780.47;15293719;19;20036;-75
2023/08/19 05:56:47;;;;;;;11.02;4.60;;;;;;;19.82;100.00;98766.38;15284398;19;20675;-75
2023/08/19 06:02:13;;;;;;;5.15;4.28;;;;;;;19.89;100.00;98752.72;15292709;19;20925;-76
2023/08/19 06:07:40;;;;;;;7.95;4.20;;;;;;;19.98;100.00;98739.69;15292252;19;20033;-75
2023/08/19 06:13:06;;;;;;;4.10;3.70;;;;;;;20.07;100.00;98737.53;15288681;19;20018;-75
2023/08/19 06:18:30;;;;;;;3.97;3.50;;;;;;;20.17;100.00;98716.03;15287001;19;20674;-75
2023/08/19 06:23:58;;;;;;;6.78;3.25;;;;;;;20.28;100.00;98712.63;15284063;19;20086;-75
2023/08/19 06:29:22;;;;;;;3.67;3.38;;;;;;;20.41;100.00;98710.88;15286979;19;20533;-75
2023/08/19 06:34:48;;;;;;;3.97;2.88;;;;;;;20.55;100.00;98696.06;15289168;19;20477;-74
2023/08/19 06:40:21;;;;;;;7.28;3.10;;;;;;;20.68;100.00;98689.69;15289738;19;20010;-76
2023/08/19 06:45:47;;;;;;;4.43;3.03;;;;;;;20.82;100.00;98684.97;15286922;19;20007;-75
2023/08/19 06:51:19;;;;;;;4.63;2.80;;;;;;;20.94;100.00;98694.16;15281116;19;20035;-76
2023/08/19 06:56:53;;;;;;;3.47;2.60;;;;;;;21.09;100.00;98702.03;15288533;19;20014;-73
2023/08/19 07:02:20;;;;;;;5.75;2.88;;;;;;;21.24;100.00;98695.38;15278604;19;20010;-74
2023/08/19 07:07:49;;;;;;;3.15;2.78;;;;;;;21.44;100.00;98687.00;15289089;19;20097;-74
2023/08/19 07:13:17;;;;;;;3.35;2.20;;;;;;;21.64;100.00;98640.19;15283210;19;20070;-75
2023/08/19 07:18:43;;;;;;;2.70;1.95;;;;;;;21.81;100.00;98626.72;15285456;19;20753;-73
2023/08/19 07:24:09;;;;;;;2.40;2.17;;;;;;;21.98;100.00;98617.84;15284651;19;20441;-73
2023/08/19 07:29:38;;;;;;;2.13;2.03;;;;;;;22.20;100.00;98628.31;15286937;19;20017;-75
2023/08/19 07:35:03;;;;;;;4.43;2.25;;;;;;;22.38;100.00;98628.28;15277860;19;20022;-74
2023/08/19 07:40:34;;;;;;;2.10;1.98;;;;;;;22.63;100.00;98605.34;15289107;19;20007;-78
2023/08/19 07:46:14;;;;;;;4.50;2.00;;;;;;;22.88;100.00;98596.06;15300089;19;20021;-79
2023/08/19 07:51:39;;;;;;;2.65;1.55;;;;;;;23.09;100.00;98576.25;15291199;19;20015;-79
2023/08/19 07:57:04;;;;;;;1.98;1.50;;;;;;;23.27;100.00;98560.72;15299107;19;20357;-79
2023/08/19 08:02:31;;;;;;;2.55;1.40;;;;;;;23.49;100.00;98568.34;15300290;19;20023;-79
2023/08/19 08:07:57;;;;;;;1.85;1.50;;;;;;;23.77;100.00;98556.53;15337266;19;20346;-81
2023/08/19 08:13:21;;;;;;;2.42;1.40;;;;;;;23.96;100.00;98543.47;15300547;19;20015;-80
2023/08/19 08:18:49;;;;;;;2.20;1.42;;;;;;;24.19;100.00;98543.59;15288751;19;20018;-79
2023/08/19 08:24:13;;;;;;;2.00;1.30;;;;;;;24.40;100.00;98544.81;15280351;19;20031;-79
2023/08/19 08:29:38;;;;;;;1.75;1.40;;;;;;;24.75;100.00;98530.81;15292838;19;20036;-79
2023/08/19 08:35:06;;;;;;;1.45;1.15;;;;;;;24.94;100.00;98533.28;15289939;19;20043;-79
2023/08/19 08:40:31;;;;;;;3.85;1.23;;;;;;;25.18;100.00;98530.31;15287093;19;20648;-79
2023/08/19 08:45:58;;;;;;;2.90;1.00;;;;;;;25.34;100.00;98520.34;15292866;19;20377;-79
2023/08/19 08:51:34;;;;;;;1.50;1.00;;;;;;;25.54;100.00;98525.28;15303741;19;20019;-80
2023/08/19 08:57:01;;;;;;;2.15;1.13;;;;;;;25.75;100.00;98525.56;15297215;19;20010;-79
2023/08/19 09:02:27;;;;;;;1.83;1.10;;;;;;;25.91;100.00;98521.84;15306507;19;20505;-79
2023/08/19 09:07:57;;;;;;;1.60;1.05;;;;;;;26.12;100.00;98520.19;15308094;19;20371;-79
2023/08/19 09:13:25;;;;;;;2.05;0.90;;;;;;;26.33;100.00;98519.53;15300799;19;20020;-80
2023/08/19 09:18:50;;;;;;;1.10;1.00;;;;;;;26.48;100.00;98521.59;15310655;19;20022;-80
2023/08/19 09:24:17;;;;;;;4.32;1.00;;;;;;;26.63;100.00;98520.88;15304816;19;20010;-79
2023/08/19 09:29:50;;;;;;;5.90;1.00;;;;;;;26.81;100.00;98525.19;15304412;19;20074;-79
2023/08/19 09:35:17;;;;;;;1.55;1.00;;;;;;;26.94;100.00;98524.72;15307305;19;20018;-80
2023/08/19 09:40:45;;;;;;;1.00;0.90;;;;;;;27.07;100.00;98521.50;15306994;19;20099;-81
2023/08/19 09:46:09;;;;;;;1.10;0.95;;;;;;;27.20;100.00;98509.13;15307077;19;20022;-80
2023/08/19 09:51:34;;;;;;;1.15;1.00;;;;;;;27.31;100.00;98501.72;15302272;19;20592;-80
2023/08/19 09:57:07;;;;;;;1.42;0.80;;;;;;;27.41;100.00;98494.56;15300739;19;20017;-80
2023/08/19 10:02:32;;;;;;;1.40;0.93;;;;;;;27.61;100.00;98493.84;15296446;19;20042;-80
2023/08/19 10:08:02;;;;;;;1.95;1.00;;;;;;;27.74;100.00;98496.09;15304209;19;20377;-80
2023/08/19 10:13:30;;;;;;;2.10;0.90;;;;;;;27.87;100.00;98502.22;15303584;19;20018;-80
2023/08/19 10:18:56;;;;;;;2.88;1.00;;;;;;;28.09;100.00;98499.22;15301801;19;20285;-80
2023/08/19 10:24:23;;;;;;;1.17;0.80;;;;;;;28.16;100.00;98496.19;15299384;19;20019;-79
2023/08/19 10:29:52;;;;;;;1.42;0.80;;;;;;;28.42;100.00;98491.47;15298466;19;20105;-80
2023/08/19 10:35:19;;;;;;;1.42;0.80;;;;;;;28.54;100.00;98497.56;15302573;19;20010;-81
2023/08/19 10:40:44;;;;;;;1.17;0.90;;;;;;;28.82;100.00;98495.38;15322287;19;20022;-79
2023/08/19 10:46:11;;;;;;;3.28;0.77;;;;;;;28.98;100.00;98487.03;15351957;19;20030;-79
2023/08/19 10:52:00;;;;;;;1.73;0.80;;;;;;;29.10;100.00;98490.31;15301313;19;20092;-78
2023/08/19 10:57:27;;;;;;;1.60;1.08;;;;;;;29.28;100.00;98490.81;15302551;19;20090;-79
2023/08/19 11:02:54;;;;;;;2.45;0.90;;;;;;;29.47;100.00;98483.53;15303125;19;20086;-80
2023/08/19 11:08:19;;;;;;;2.58;1.10;;;;;;;29.66;100.00;98485.69;15298472;19;20014;-79
2023/08/19 11:13:43;;;;;;;2.33;0.98;;;;;;;29.81;94.21;98487.53;15294431;19;20349;-78
2023/08/19 11:19:10;;;;;;;4.13;0.98;;;;;;;29.90;88.02;98485.00;15292234;19;20024;-79
2023/08/19 11:24:40;;;;;;;1.90;1.00;;;;;;;29.97;85.44;98483.59;15293154;19;20019;-79
2023/08/19 11:30:05;;;;;;;2.28;1.05;;;;;;;30.08;82.17;98472.41;15292407;19;20023;-78
2023/08/19 11:35:37;;;;;;;2.35;0.90;;;;;;;30.21;87.98;98476.47;15294522;19;20013;-80
2023/08/19 11:41:04;;;;;;;2.00;0.80;;;;;;;30.44;84.98;98480.47;15289572;19;20014;-79
2023/08/19 11:46:30;;;;;;;1.13;0.80;;;;;;;30.49;100.00;98474.84;15296250;19;20094;-79
2023/08/19 11:51:58;;;;;;;2.85;0.88;;;;;;;30.54;91.02;98471.19;15288406;19;20424;-78
2023/08/19 11:57:24;;;;;;;3.60;0.90;;;;;;;30.62;100.00;98467.81;15291513;19;20015;-78
2023/08/19 12:02:49;;;;;;;3.22;0.90;;;;;;;30.75;95.30;98472.66;15291853;19;20399;-79
2023/08/19 12:08:17;;;;;;;1.95;1.02;;;;;;;30.89;96.91;98472.81;15294221;19;20015;-80
2023/08/19 12:13:43;;;;;;;2.30;0.88;;;;;;;31.05;84.11;98464.28;15291842;19;20078;-80
2023/08/19 12:19:07;;;;;;;2.47;0.80;;;;;;;31.25;91.28;98468.00;15300377;19;20074;-80
2023/08/19 12:24:36;;;;;;;1.27;0.90;;;;;;;31.35;83.17;98463.13;15301686;19;20021;-79
2023/08/19 12:30:01;;;;;;;2.28;0.80;;;;;;;31.49;83.45;98463.22;15355698;19;20006;-78
2023/08/19 12:35:27;;;;;;;1.90;0.82;;;;;;;31.65;76.02;98465.78;15336795;19;20365;-78
2023/08/19 12:40:56;;;;;;;1.63;0.82;;;;;;;31.78;82.75;98469.84;15293591;19;20025;-79
2023/08/19 12:46:22;;;;;;;1.83;1.00;;;;;;;32.03;66.13;98465.00;15301840;19;20014;-79
2023/08/19 12:51:56;;;;;;;1.95;0.85;;;;;;;32.16;68.47;98472.59;15296258;19;20017;-79
2023/08/19 12:57:23;;;;;;;2.28;0.90;;;;;;;32.29;61.78;98457.09;15296401;19;20011;-78
2023/08/19 13:02:49;;;;;;;2.05;0.93;;;;;;;32.58;66.85;98451.28;15301784;19;20058;-81
2023/08/19 13:08:14;;;;;;;3.08;0.80;;;;;;;32.80;57.33;98462.94;15303852;19;20092;-80
2023/08/19 13:13:41;;;;;;;1.45;0.70;;;;;;;32.89;59.25;98461.06;15292359;19;20751;-80
2023/08/19 13:19:06;;;;;;;1.90;0.90;;;;;;;33.07;54.79;98456.53;15302535;19;20025;-79
2023/08/19 13:24:30;;;;;;;6.07;0.95;;;;;;;33.09;56.79;98457.06;15299172;19;20016;-81
2023/08/19 13:29:58;;;;;;;2.22;0.80;;;;;;;33.36;56.68;98458.19;15297382;19;20014;-82
2023/08/19 13:35:24;;;;;;;;;;;;;;;33.64;51.90;98453.38;15302981;19;20014;-83
2023/08/19 13:40:51;;;;;;;2.90;1.00;;;;;;;33.76;50.29;98458.44;15303575;19;20599;-81
2023/08/19 13:46:19;;;;;;;7.70;1.05;;;;;;;34.11;51.69;98457.94;15305775;19;20023;-82
2023/08/19 13:51:44;;;;;;;3.15;0.90;;;;;;;34.39;57.50;98467.03;15302290;19;20014;-82
2023/08/19 13:57:08;;;;;;;3.53;0.93;;;;;;;34.43;51.63;98458.88;15305850;19;20010;-81
2023/08/19 14:02:35;;;;;;;2.85;1.02;;;;;;;34.47;47.57;98453.47;15303933;19;20077;-79
2023/08/19 14:08:00;;;;;;;3.03;1.00;;;;;;;34.82;53.74;98453.66;14798741;19;10000382;-80
2023/08/19 14:13:25;;;;;;;2.58;0.90;;;;;;;35.12;49.06;98456.75;15302734;19;20110;-81
2023/08/19 14:18:52;;;;;;;3.85;1.00;;;;;;;35.39;48.28;98449.25;15291897;19;20525;-80
2023/08/19 14:24:18;;;;;;;1.90;0.90;;;;;;;35.64;48.35;98453.28;15303614;19;20038;-79
2023/08/19 14:29:42;;;;;;;1.83;0.90;;;;;;;35.62;48.32;98456.44;15311167;19;21205;-79
2023/08/19 14:35:10;;;;;;;1.45;0.68;;;;;;;35.90;44.37;98455.28;15301655;19;20018;-80
2023/08/19 14:40:35;;;;;;;3.78;0.90;;;;;;;36.20;47.56;98463.91;15309386;19;20630;-80
2023/08/19 14:46:00;;;;;;;1.30;0.80;;;;;;;36.13;46.40;98456.00;15304673;19;20011;-80
2023/08/19 14:51:27;;;;;;;1.73;0.82;;;;;;;35.89;46.80;98462.03;15301841;19;20552;-80
2023/08/19 14:56:52;;;;;;;3.20;1.00;;;;;;;35.71;47.24;98462.03;15303717;19;20481;-80
2023/08/19 15:02:17;;;;;;;1.75;0.75;;;;;;;35.34;47.58;98459.47;15304741;19;20636;-80
2023/08/19 15:07:46;;;;;;;1.60;0.80;;;;;;;35.05;46.47;98467.59;15302719;19;20031;-81
2023/08/19 15:13:11;;;;;;;5.40;1.00;;;;;;;35.17;49.19;98460.22;15302154;19;20085;-80
2023/08/19 15:18:37;;;;;;;2.22;0.82;;;;;;;35.26;47.50;98467.84;15300665;19;20038;-83
2023/08/19 15:24:05;;;;;;;1.85;0.80;;;;;;;34.67;49.30;98464.09;15299398;19;20090;-81
2023/08/19 15:29:31;;;;;;;2.53;0.93;;;;;;;34.24;49.12;98470.22;15300151;19;20030;-82
2023/08/19 15:34:56;;;;;;;3.47;0.80;;;;;;;34.24;49.83;98467.41;15300819;19;20018;-79
2023/08/19 15:40:26;;;;;;;3.83;0.75;;;;;;;34.27;49.93;98461.19;15297151;19;20010;-80
2023/08/19 15:45:51;;;;;;;3.08;0.80;;;;;;;34.05;50.63;98460.03;15297059;19;20011;-80
2023/08/19 15:51:16;;;;;;;2.55;0.85;;;;;;;34.30;50.13;98459.72;15302403;19;20334;-80
2023/08/19 15:56:43;;;;;;;2.47;0.90;;;;;;;34.36;50.04;98458.44;15300286;19;20007;-80
2023/08/19 16:02:09;;;;;;;2.28;0.85;;;;;;;34.06;50.00;98458.06;15309596;19;20027;-80
2023/08/19 16:07:41;;;;;;;2.92;0.70;;;;;;;34.03;50.24;98467.09;15315381;19;20015;-80
2023/08/19 16:13:09;;;;;;;6.07;1.13;;;;;;;33.99;52.02;98460.50;15310334;19;20075;-81
2023/08/19 16:18:34;;;;;;;1.98;0.90;;;;;;;33.81;55.11;98469.50;15313076;19;20018;-81
2023/08/19 16:24:00;;;;;;;2.95;0.70;;;;;;;33.86;54.40;98468.56;15314660;19;20007;-81
2023/08/19 16:29:28;;;;;;;2.83;0.75;;;;;;;33.97;54.73;98471.97;15312886;19;20042;-79
2023/08/19 16:34:53;;;;;;;2.08;0.80;;;;;;;34.08;54.72;98473.38;15349621;19;20037;-80
2023/08/19 16:40:19;;;;;;;2.00;0.90;;;;;;;34.04;57.40;98474.34;15353184;19;20025;-78
2023/08/19 16:45:56;;;;;;;2.10;0.90;;;;;;;34.17;56.67;98467.88;15305793;19;20031;-78
2023/08/19 16:51:20;;;;;;;1.60;0.90;;;;;;;34.23;60.02;98471.34;15306919;19;20105;-78
2023/08/19 16:56:45;;;;;;;2.30;0.95;;;;;;;34.08;57.86;98478.16;15310011;19;20081;-79
2023/08/19 17:02:12;;;;;;;3.15;1.00;;;;;;;33.59;58.40;98475.88;15310520;19;20015;-80
2023/08/19 17:07:38;;;;;;;4.00;1.25;;;;;;;33.15;63.26;98494.06;15317851;19;20007;-79
2023/08/19 17:13:02;;;;;;;2.35;0.95;;;;;;;32.87;76.38;98492.06;15314107;19;20082;-79
2023/08/19 17:18:30;;;;;;;4.32;1.13;;;;;;;32.34;81.39;98509.94;15314363;19;20010;-78
2023/08/19 17:23:54;;;;;;;2.50;1.17;;;;;;;31.83;87.97;98516.28;15309188;19;19998;-78
2023/08/19 17:29:19;;;;;;;2.55;1.05;;;;;;;31.11;100.00;98529.03;15310699;19;20014;-79
2023/08/19 17:34:46;;;;;;;3.17;1.10;;;;;;;30.69;100.00;98523.09;15302513;19;20098;-81
2023/08/19 17:40:12;;;;;;;2.00;0.98;;;;;;;30.22;100.00;98533.69;15284899;19;20061;-81
2023/08/19 17:45:36;;;;;;;2.72;1.00;;;;;;;29.98;100.00;98538.03;15297872;19;20015;-79
2023/08/19 17:51:10;;;;;;;4.45;1.10;;;;;;;29.82;100.00;98542.78;15303989;19;20024;-80
2023/08/19 17:56:35;;;;;;;3.97;1.17;;;;;;;29.67;100.00;98548.44;15312112;19;20094;-81
2023/08/19 18:02:01;;;;;;;3.90;1.10;;;;;;;29.46;100.00;98542.13;15308569;19;20010;-80
2023/08/19 18:07:22;;;;;;;4.47;1.05;;;;;;;29.38;100.00;98548.25;15301110;19;20082;-81
2023/08/19 18:12:47;;;;;;;5.60;1.05;;;;;;;29.28;100.00;98540.75;15306006;19;20078;-81
2023/08/19 18:18:12;;;;;;;3.03;1.10;;;;;;;29.21;100.00;98558.53;15298405;19;20047;-80
2023/08/19 18:23:40;;;;;;;4.60;1.23;;;;;;;29.15;100.00;98554.09;15301958;19;20017;-79
2023/08/19 18:29:04;;;;;;;4.75;1.00;;;;;;;29.11;100.00;98568.81;15305862;19;20017;-79
2023/08/19 18:34:30;;;;;;;3.45;1.20;;;;;;;29.06;100.00;98583.53;15302366;19;20028;-81
2023/08/19 18:39:57;;;;;;;9.07;1.33;;;;;;;28.89;100.00;98576.31;15292788;19;20466;-77
2023/08/19 18:45:22;;;;;;;5.53;1.10;;;;;;;28.81;100.00;98587.16;15294796;19;20045;-77
2023/08/19 18:50:48;;;;;;;5.07;1.15;;;;;;;28.65;100.00;98581.56;15291906;19;20035;-76
2023/08/19 18:56:16;;;;;;;6.40;1.20;;;;;;;28.54;100.00;98586.25;15296014;19;20031;-77
2023/08/19 19:01:40;;;;;;;5.55;1.20;;;;;;;28.41;100.00;98589.56;15296113;19;20371;-76
2023/08/19 19:07:05;;;;;;;3.95;1.10;;;;;;;28.29;100.00;98603.69;15292874;19;20002;-78
2023/08/19 19:12:32;;;;;;;9.73;1.42;;;;;;;28.21;100.00;98605.06;15289977;19;20050;-77
2023/08/19 19:17:59;;;;;;;5.43;1.30;;;;;;;28.10;100.00;98608.91;15297664;19;20011;-75
2023/08/19 19:23:25;;;;;;;4.03;1.00;;;;;;;27.99;100.00;98606.06;15290314;19;20022;-77
2023/08/19 19:28:53;;;;;;;7.78;1.52;;;;;;;27.87;100.00;98612.97;15291715;19;20633;-76
2023/08/19 19:34:18;;;;;;;6.68;1.30;;;;;;;27.80;100.00;98622.34;15288191;19;20014;-77
2023/08/19 19:39:43;;;;;;;3.42;1.38;;;;;;;27.67;100.00;98620.91;15287382;19;20022;-76
2023/08/19 19:45:10;;;;;;;7.57;1.27;;;;;;;27.51;100.00;98633.81;15287726;19;20018;-77
2023/08/19 19:50:35;;;;;;;8.75;1.33;;;;;;;27.30;100.00;98641.13;15297033;19;20018;-77
2023/08/19 19:56:00;;;;;;;8.35;1.20;;;;;;;27.16;100.00;98646.28;15283206;19;20023;-75
2023/08/19 20:01:28;;;;;;;5.00;1.20;;;;;;;27.02;100.00;98651.41;15287352;19;20116;-76
2023/08/19 20:06:52;;;;;;;2.05;1.00;;;;;;;26.89;100.00;98660.13;15288609;19;20014;-77
2023/08/19 20:12:17;;;;;;;6.93;1.20;;;;;;;26.79;100.00;98671.09;15283982;19;20023;-76
2023/08/19 20:17:44;;;;;;;4.32;1.30;;;;;;;26.69;100.00;98669.88;15289107;19;20367;-75
2023/08/19 20:23:18;;;;;;;5.47;1.17;;;;;;;26.61;100.00;98670.38;15288169;19;20055;-76
2023/08/19 20:28:44;;;;;;;4.63;1.38;;;;;;;26.58;100.00;98668.94;15284460;19;20027;-75
2023/08/19 20:34:11;;;;;;;7.18;1.30;;;;;;;26.51;100.00;98665.56;15289078;19;20010;-77
2023/08/19 20:39:38;;;;;;;3.20;1.23;;;;;;;26.45;100.00;98663.84;15292568;19;20036;-75
2023/08/19 20:45:03;;;;;;;6.65;1.20;;;;;;;26.38;100.00;98657.69;15299101;19;20047;-76
2023/08/19 20:50:31;;;;;;;6.68;1.25;;;;;;;26.38;100.00;98652.16;15346881;19;20007;-75
2023/08/19 20:55:57;;;;;;;6.18;1.30;;;;;;;26.37;100.00;98647.72;15345514;19;20014;-76
2023/08/19 21:01:22;;;;;;;3.53;1.20;;;;;;;26.29;100.00;98640.72;15299943;19;20019;-78
2023/08/19 21:06:49;;;;;;;3.75;1.38;;;;;;;26.21;100.00;98636.53;15308572;19;20028;-77
2023/08/19 21:12:15;;;;;;;2.45;1.20;;;;;;;26.18;100.00;98638.94;15306179;19;20014;-77
2023/08/19 21:17:40;;;;;;;4.28;1.20;;;;;;;26.10;100.00;98621.75;15309529;19;20010;-75
2023/08/19 21:23:09;;;;;;;3.50;1.30;;;;;;;26.04;100.00;98611.72;15310096;19;20376;-77
2023/08/19 21:28:35;;;;;;;4.85;1.30;;;;;;;25.84;100.00;98632.44;15313974;19;20028;-76
2023/08/19 21:34:07;;;;;;;5.63;1.15;;;;;;;25.72;100.00;98637.25;15305694;19;20412;-79
2023/08/19 21:39:35;;;;;;;4.32;1.50;;;;;;;25.66;100.00;98650.16;15309383;19;20014;-78
2023/08/19 21:45:00;;;;;;;6.90;1.27;;;;;;;25.62;100.00;98659.19;15304558;19;20029;-78
2023/08/19 21:50:25;;;;;;;7.15;1.30;;;;;;;25.48;100.00;98678.84;15305792;19;20031;-76
2023/08/19 21:55:59;;;;;;;4.07;1.30;;;;;;;25.18;100.00;98688.31;15302091;19;20014;-77
2023/08/19 22:01:24;;;;;;;6.50;1.20;;;;;;;24.93;100.00;98700.56;15300220;19;20343;-78
2023/08/19 22:06:51;;;;;;;3.40;1.25;;;;;;;24.80;100.00;98703.63;15301796;19;20027;-76
2023/08/19 22:12:22;;;;;;;3.50;1.17;;;;;;;24.81;100.00;98699.78;15299627;19;20036;-78
2023/08/19 22:17:48;;;;;;;4.05;1.20;;;;;;;24.82;100.00;98700.63;15302518;19;20036;-78
2023/08/19 22:23:13;;;;;;;4.15;1.20;;;;;;;24.86;100.00;98696.28;15298134;19;20027;-76
2023/08/19 22:28:41;;;;;;;3.17;1.27;;;;;;;24.89;100.00;98696.63;15304661;19;20024;-77
2023/08/19 22:34:06;;;;;;;4.10;1.30;;;;;;;24.95;100.00;98700.31;15321879;19;20018;-75
2023/08/19 22:39:32;;;;;;;3.97;1.35;;;;;;;24.99;100.00;98706.19;15320953;19;20021;-77
2023/08/19 22:44:59;;;;;;;6.35;1.48;;;;;;;25.02;100.00;98700.16;15302694;19;21245;-77
2023/08/19 22:50:25;;;;;;;5.63;1.35;;;;;;;24.93;100.00;98719.88;15299509;19;20010;-77
2023/08/19 22:55:57;;;;;;;7.50;1.23;;;;;;;24.82;100.00;98733.69;15295478;19;20066;-79
2023/08/19 23:01:24;;;;;;;4.68;1.48;;;;;;;24.63;100.00;98744.88;15299708;19;20019;-78
2023/08/19 23:06:48;;;;;;;2.72;1.20;;;;;;;24.53;100.00;98744.69;15305960;19;20086;-78
2023/08/19 23:12:13;;;;;;;6.22;1.40;;;;;;;24.46;100.00;98753.09;15299785;19;20364;-76
2023/08/19 23:17:41;;;;;;;6.60;1.30;;;;;;;24.36;100.00;98752.88;15301763;19;20470;-78
2023/08/19 23:23:11;;;;;;;4.25;1.25;;;;;;;24.27;100.00;98767.03;15299616;19;20044;-78
2023/08/19 23:28:37;;;;;;;7.35;1.50;;;;;;;24.20;100.00;98773.75;15294719;19;20018;-76
2023/08/19 23:34:05;;;;;;;4.22;1.55;;;;;;;24.15;100.00;98775.31;15297675;19;20011;-77
2023/08/19 23:39:29;;;;;;;7.00;1.60;;;;;;;24.16;100.00;98776.16;15298042;19;20014;-77
2023/08/19 23:44:55;;;;;;;5.25;1.45;;;;;;;24.21;100.00;98768.00;15293974;19;20077;-78
2023/08/19 23:50:23;;;;;;;3.72;1.50;;;;;;;24.16;100.00;98781.66;15300363;19;20015;-78
2023/08/19 23:56:08;;;;;;;6.75;1.50;;;;;;;24.15;100.00;98772.56;15294835;19;20022;-77
